sensor_id;sensor_type;location;lat;lon;timestamp;P1;durP1;ratioP1;P2;durP2;ratioP2
61505;SDS011;47366;51.916;4.574;2023-06-14T00:00:09;2.72;;;1.48;;
61505;SDS011;47366;51.916;4.574;2023-06-14T00:02:37;2.85;;;1.20;;
61505;SDS011;47366;51.916;4.574;2023-06-14T00:05:04;2.10;;;1.27;;
61505;SDS011;47366;51.916;4.574;2023-06-14T00:07:37;5.70;;;1.50;;
61505;SDS011;47366;51.916;4.574;2023-06-14T00:10:07;2.97;;;1.60;;
61505;SDS011;47366;51.916;4.574;2023-06-14T00:12:34;2.97;;;1.60;;
61505;SDS011;47366;51.916;4.574;2023-06-14T00:14:59;2.90;;;1.42;;
61505;SDS011;47366;51.916;4.574;2023-06-14T00:17:26;4.13;;;1.35;;
61505;SDS011;47366;51.916;4.574;2023-06-14T00:19:55;3.08;;;1.38;;
61505;SDS011;47366;51.916;4.574;2023-06-14T00:22:21;1.23;;;1.00;;
61505;SDS011;47366;51.916;4.574;2023-06-14T00:24:49;2.42;;;1.40;;
61505;SDS011;47366;51.916;4.574;2023-06-14T00:27:15;3.05;;;1.40;;
61505;SDS011;47366;51.916;4.574;2023-06-14T00:29:40;2.30;;;1.33;;
61505;SDS011;47366;51.916;4.574;2023-06-14T00:32:06;3.25;;;1.52;;
61505;SDS011;47366;51.916;4.574;2023-06-14T00:34:32;2.55;;;1.27;;
61505;SDS011;47366;51.916;4.574;2023-06-14T00:36:57;2.53;;;1.30;;
61505;SDS011;47366;51.916;4.574;2023-06-14T00:39:22;1.63;;;1.05;;
61505;SDS011;47366;51.916;4.574;2023-06-14T00:41:48;2.38;;;1.50;;
61505;SDS011;47366;51.916;4.574;2023-06-14T00:44:13;2.38;;;1.40;;
61505;SDS011;47366;51.916;4.574;2023-06-14T00:46:42;2.58;;;1.30;;
61505;SDS011;47366;51.916;4.574;2023-06-14T00:49:07;3.22;;;1.10;;
61505;SDS011;47366;51.916;4.574;2023-06-14T00:51:33;5.63;;;1.33;;
61505;SDS011;47366;51.916;4.574;2023-06-14T00:53:59;2.58;;;1.33;;
61505;SDS011;47366;51.916;4.574;2023-06-14T00:56:25;4.65;;;1.40;;
61505;SDS011;47366;51.916;4.574;2023-06-14T00:58:52;2.58;;;1.42;;
61505;SDS011;47366;51.916;4.574;2023-06-14T01:01:18;2.95;;;1.52;;
61505;SDS011;47366;51.916;4.574;2023-06-14T01:03:43;4.13;;;1.58;;
61505;SDS011;47366;51.916;4.574;2023-06-14T01:06:14;3.83;;;1.50;;
61505;SDS011;47366;51.916;4.574;2023-06-14T01:09:46;3.55;;;1.27;;
61505;SDS011;47366;51.916;4.574;2023-06-14T01:11:54;3.20;;;1.67;;
61505;SDS011;47366;51.916;4.574;2023-06-14T01:14:28;3.67;;;1.25;;
61505;SDS011;47366;51.916;4.574;2023-06-14T01:16:56;2.88;;;1.60;;
61505;SDS011;47366;51.916;4.574;2023-06-14T01:19:24;2.35;;;1.40;;
61505;SDS011;47366;51.916;4.574;2023-06-14T01:21:50;2.95;;;1.60;;
61505;SDS011;47366;51.916;4.574;2023-06-14T01:24:16;2.53;;;1.38;;
61505;SDS011;47366;51.916;4.574;2023-06-14T01:26:44;6.35;;;1.60;;
61505;SDS011;47366;51.916;4.574;2023-06-14T01:29:10;3.53;;;1.33;;
61505;SDS011;47366;51.916;4.574;2023-06-14T01:31:37;2.30;;;1.45;;
61505;SDS011;47366;51.916;4.574;2023-06-14T01:34:06;2.53;;;1.52;;
61505;SDS011;47366;51.916;4.574;2023-06-14T01:36:32;2.88;;;1.30;;
61505;SDS011;47366;51.916;4.574;2023-06-14T01:38:58;2.78;;;1.52;;
61505;SDS011;47366;51.916;4.574;2023-06-14T01:41:24;7.57;;;1.50;;
61505;SDS011;47366;51.916;4.574;2023-06-14T01:43:51;1.63;;;1.20;;
61505;SDS011;47366;51.916;4.574;2023-06-14T01:46:17;4.47;;;1.23;;
61505;SDS011;47366;51.916;4.574;2023-06-14T01:48:44;4.60;;;1.35;;
61505;SDS011;47366;51.916;4.574;2023-06-14T01:51:10;2.42;;;1.50;;
61505;SDS011;47366;51.916;4.574;2023-06-14T01:53:35;3.47;;;1.77;;
61505;SDS011;47366;51.916;4.574;2023-06-14T01:56:01;3.53;;;1.42;;
61505;SDS011;47366;51.916;4.574;2023-06-14T01:58:26;2.17;;;1.35;;
61505;SDS011;47366;51.916;4.574;2023-06-14T02:00:52;1.73;;;1.08;;
61505;SDS011;47366;51.916;4.574;2023-06-14T02:03:20;2.95;;;1.40;;
61505;SDS011;47366;51.916;4.574;2023-06-14T02:05:45;2.60;;;1.40;;
61505;SDS011;47366;51.916;4.574;2023-06-14T02:08:11;3.08;;;1.50;;
61505;SDS011;47366;51.916;4.574;2023-06-14T02:10:36;2.63;;;1.33;;
61505;SDS011;47366;51.916;4.574;2023-06-14T02:13:02;3.33;;;1.45;;
61505;SDS011;47366;51.916;4.574;2023-06-14T02:15:27;2.15;;;1.38;;
61505;SDS011;47366;51.916;4.574;2023-06-14T02:17:58;3.72;;;1.17;;
61505;SDS011;47366;51.916;4.574;2023-06-14T02:20:24;2.50;;;1.42;;
61505;SDS011;47366;51.916;4.574;2023-06-14T02:22:49;2.80;;;1.55;;
61505;SDS011;47366;51.916;4.574;2023-06-14T02:25:14;2.65;;;1.50;;
61505;SDS011;47366;51.916;4.574;2023-06-14T02:27:40;1.67;;;1.17;;
61505;SDS011;47366;51.916;4.574;2023-06-14T02:30:05;2.30;;;1.40;;
61505;SDS011;47366;51.916;4.574;2023-06-14T02:32:31;1.92;;;1.00;;
61505;SDS011;47366;51.916;4.574;2023-06-14T02:34:56;2.80;;;1.40;;
61505;SDS011;47366;51.916;4.574;2023-06-14T02:37:22;5.43;;;1.60;;
61505;SDS011;47366;51.916;4.574;2023-06-14T02:39:47;2.67;;;1.30;;
61505;SDS011;47366;51.916;4.574;2023-06-14T02:42:13;2.72;;;1.35;;
61505;SDS011;47366;51.916;4.574;2023-06-14T02:44:38;2.50;;;1.52;;
61505;SDS011;47366;51.916;4.574;2023-06-14T02:47:04;2.95;;;1.40;;
61505;SDS011;47366;51.916;4.574;2023-06-14T02:49:30;3.30;;;1.40;;
61505;SDS011;47366;51.916;4.574;2023-06-14T02:51:55;4.32;;;1.25;;
61505;SDS011;47366;51.916;4.574;2023-06-14T02:54:21;3.20;;;1.20;;
61505;SDS011;47366;51.916;4.574;2023-06-14T02:56:46;2.55;;;1.40;;
61505;SDS011;47366;51.916;4.574;2023-06-14T02:59:11;3.20;;;1.60;;
61505;SDS011;47366;51.916;4.574;2023-06-14T03:01:38;2.42;;;1.25;;
61505;SDS011;47366;51.916;4.574;2023-06-14T03:04:04;2.65;;;1.23;;
61505;SDS011;47366;51.916;4.574;2023-06-14T03:06:30;2.20;;;1.30;;
61505;SDS011;47366;51.916;4.574;2023-06-14T03:08:56;5.10;;;1.50;;
61505;SDS011;47366;51.916;4.574;2023-06-14T03:11:25;4.57;;;1.35;;
61505;SDS011;47366;51.916;4.574;2023-06-14T03:13:53;2.85;;;1.33;;
61505;SDS011;47366;51.916;4.574;2023-06-14T03:16:19;2.40;;;1.30;;
61505;SDS011;47366;51.916;4.574;2023-06-14T03:18:47;2.70;;;1.45;;
61505;SDS011;47366;51.916;4.574;2023-06-14T03:21:18;2.03;;;1.25;;
61505;SDS011;47366;51.916;4.574;2023-06-14T03:23:45;3.55;;;1.40;;
61505;SDS011;47366;51.916;4.574;2023-06-14T03:26:11;2.67;;;1.55;;
61505;SDS011;47366;51.916;4.574;2023-06-14T03:28:40;3.08;;;1.50;;
61505;SDS011;47366;51.916;4.574;2023-06-14T03:31:06;2.72;;;1.55;;
61505;SDS011;47366;51.916;4.574;2023-06-14T03:33:32;5.90;;;1.50;;
61505;SDS011;47366;51.916;4.574;2023-06-14T03:35:57;2.53;;;1.33;;
61505;SDS011;47366;51.916;4.574;2023-06-14T03:38:22;3.70;;;1.15;;
61505;SDS011;47366;51.916;4.574;2023-06-14T03:40:48;2.70;;;1.48;;
61505;SDS011;47366;51.916;4.574;2023-06-14T03:43:13;2.00;;;1.30;;
61505;SDS011;47366;51.916;4.574;2023-06-14T03:45:38;3.03;;;1.30;;
61505;SDS011;47366;51.916;4.574;2023-06-14T03:48:04;2.78;;;1.40;;
61505;SDS011;47366;51.916;4.574;2023-06-14T03:50:31;2.85;;;1.30;;
61505;SDS011;47366;51.916;4.574;2023-06-14T03:52:57;3.47;;;1.73;;
61505;SDS011;47366;51.916;4.574;2023-06-14T03:55:23;3.67;;;1.58;;
61505;SDS011;47366;51.916;4.574;2023-06-14T03:57:50;2.92;;;1.45;;
61505;SDS011;47366;51.916;4.574;2023-06-14T04:00:15;4.45;;;1.23;;
61505;SDS011;47366;51.916;4.574;2023-06-14T04:02:41;2.35;;;1.48;;
61505;SDS011;47366;51.916;4.574;2023-06-14T04:05:06;1.83;;;1.08;;
61505;SDS011;47366;51.916;4.574;2023-06-14T04:07:33;3.53;;;1.25;;
61505;SDS011;47366;51.916;4.574;2023-06-14T04:10:06;2.83;;;1.42;;
61505;SDS011;47366;51.916;4.574;2023-06-14T04:12:31;2.63;;;1.38;;
61505;SDS011;47366;51.916;4.574;2023-06-14T04:14:57;1.67;;;1.02;;
61505;SDS011;47366;51.916;4.574;2023-06-14T04:17:22;4.20;;;1.30;;
61505;SDS011;47366;51.916;4.574;2023-06-14T04:19:48;1.85;;;1.23;;
61505;SDS011;47366;51.916;4.574;2023-06-14T04:22:13;4.15;;;1.60;;
61505;SDS011;47366;51.916;4.574;2023-06-14T04:24:38;3.22;;;1.30;;
61505;SDS011;47366;51.916;4.574;2023-06-14T04:27:03;4.50;;;1.88;;
61505;SDS011;47366;51.916;4.574;2023-06-14T04:29:29;3.65;;;1.60;;
61505;SDS011;47366;51.916;4.574;2023-06-14T04:31:54;4.30;;;1.10;;
61505;SDS011;47366;51.916;4.574;2023-06-14T04:34:24;2.22;;;1.20;;
61505;SDS011;47366;51.916;4.574;2023-06-14T04:36:55;2.03;;;1.30;;
61505;SDS011;47366;51.916;4.574;2023-06-14T04:39:21;2.30;;;1.27;;
61505;SDS011;47366;51.916;4.574;2023-06-14T04:41:47;2.80;;;1.30;;
61505;SDS011;47366;51.916;4.574;2023-06-14T04:44:18;2.47;;;1.70;;
61505;SDS011;47366;51.916;4.574;2023-06-14T04:46:44;2.58;;;1.38;;
61505;SDS011;47366;51.916;4.574;2023-06-14T04:49:13;1.95;;;1.20;;
61505;SDS011;47366;51.916;4.574;2023-06-14T04:51:42;2.17;;;1.20;;
61505;SDS011;47366;51.916;4.574;2023-06-14T04:54:09;1.75;;;1.20;;
61505;SDS011;47366;51.916;4.574;2023-06-14T04:56:38;3.35;;;1.35;;
61505;SDS011;47366;51.916;4.574;2023-06-14T04:59:04;3.03;;;1.40;;
61505;SDS011;47366;51.916;4.574;2023-06-14T05:01:30;1.95;;;1.25;;
61505;SDS011;47366;51.916;4.574;2023-06-14T05:03:57;2.85;;;1.45;;
61505;SDS011;47366;51.916;4.574;2023-06-14T05:06:22;4.70;;;1.70;;
61505;SDS011;47366;51.916;4.574;2023-06-14T05:08:47;1.95;;;1.10;;
61505;SDS011;47366;51.916;4.574;2023-06-14T05:11:13;4.45;;;1.30;;
61505;SDS011;47366;51.916;4.574;2023-06-14T05:13:38;5.13;;;1.40;;
61505;SDS011;47366;51.916;4.574;2023-06-14T05:16:06;2.95;;;1.50;;
61505;SDS011;47366;51.916;4.574;2023-06-14T05:18:31;2.40;;;1.40;;
61505;SDS011;47366;51.916;4.574;2023-06-14T05:20:59;3.15;;;1.48;;
61505;SDS011;47366;51.916;4.574;2023-06-14T05:23:24;1.27;;;0.90;;
61505;SDS011;47366;51.916;4.574;2023-06-14T05:25:50;2.30;;;1.40;;
61505;SDS011;47366;51.916;4.574;2023-06-14T05:28:15;2.60;;;1.30;;
61505;SDS011;47366;51.916;4.574;2023-06-14T05:30:41;4.85;;;1.13;;
61505;SDS011;47366;51.916;4.574;2023-06-14T05:33:06;6.40;;;1.58;;
61505;SDS011;47366;51.916;4.574;2023-06-14T05:35:32;3.08;;;1.50;;
61505;SDS011;47366;51.916;4.574;2023-06-14T05:37:57;1.73;;;1.25;;
61505;SDS011;47366;51.916;4.574;2023-06-14T05:40:22;4.32;;;1.58;;
61505;SDS011;47366;51.916;4.574;2023-06-14T05:42:48;3.67;;;1.75;;
61505;SDS011;47366;51.916;4.574;2023-06-14T05:45:13;3.67;;;1.15;;
61505;SDS011;47366;51.916;4.574;2023-06-14T05:47:40;1.75;;;1.20;;
61505;SDS011;47366;51.916;4.574;2023-06-14T05:50:06;6.70;;;1.70;;
61505;SDS011;47366;51.916;4.574;2023-06-14T05:52:32;2.50;;;1.23;;
61505;SDS011;47366;51.916;4.574;2023-06-14T05:54:59;1.63;;;1.10;;
61505;SDS011;47366;51.916;4.574;2023-06-14T05:57:24;2.88;;;1.48;;
61505;SDS011;47366;51.916;4.574;2023-06-14T05:59:50;4.00;;;1.70;;
61505;SDS011;47366;51.916;4.574;2023-06-14T06:02:16;2.35;;;1.42;;
61505;SDS011;47366;51.916;4.574;2023-06-14T06:04:41;3.05;;;1.40;;
61505;SDS011;47366;51.916;4.574;2023-06-14T06:07:07;2.58;;;1.25;;
61505;SDS011;47366;51.916;4.574;2023-06-14T06:09:32;4.13;;;1.52;;
61505;SDS011;47366;51.916;4.574;2023-06-14T06:11:58;2.53;;;1.20;;
61505;SDS011;47366;51.916;4.574;2023-06-14T06:14:23;3.75;;;1.55;;
61505;SDS011;47366;51.916;4.574;2023-06-14T06:16:49;2.35;;;1.20;;
61505;SDS011;47366;51.916;4.574;2023-06-14T06:19:14;2.50;;;1.63;;
61505;SDS011;47366;51.916;4.574;2023-06-14T06:21:40;2.20;;;1.35;;
61505;SDS011;47366;51.916;4.574;2023-06-14T06:24:05;3.28;;;1.33;;
61505;SDS011;47366;51.916;4.574;2023-06-14T06:26:31;2.72;;;1.38;;
61505;SDS011;47366;51.916;4.574;2023-06-14T06:28:57;3.15;;;1.45;;
61505;SDS011;47366;51.916;4.574;2023-06-14T06:31:23;5.40;;;1.80;;
61505;SDS011;47366;51.916;4.574;2023-06-14T06:33:49;4.78;;;1.80;;
61505;SDS011;47366;51.916;4.574;2023-06-14T06:36:15;3.55;;;1.65;;
61505;SDS011;47366;51.916;4.574;2023-06-14T06:38:41;4.20;;;1.83;;
61505;SDS011;47366;51.916;4.574;2023-06-14T06:41:06;3.88;;;1.85;;
61505;SDS011;47366;51.916;4.574;2023-06-14T06:43:32;2.88;;;1.50;;
61505;SDS011;47366;51.916;4.574;2023-06-14T06:45:57;2.60;;;1.52;;
61505;SDS011;47366;51.916;4.574;2023-06-14T06:48:22;3.03;;;1.35;;
61505;SDS011;47366;51.916;4.574;2023-06-14T06:50:47;4.63;;;1.35;;
61505;SDS011;47366;51.916;4.574;2023-06-14T06:53:16;4.68;;;1.70;;
61505;SDS011;47366;51.916;4.574;2023-06-14T06:55:43;2.95;;;1.30;;
61505;SDS011;47366;51.916;4.574;2023-06-14T06:58:08;3.13;;;1.50;;
61505;SDS011;47366;51.916;4.574;2023-06-14T07:00:34;2.63;;;1.65;;
61505;SDS011;47366;51.916;4.574;2023-06-14T07:02:59;2.08;;;1.40;;
61505;SDS011;47366;51.916;4.574;2023-06-14T07:05:25;2.50;;;1.38;;
61505;SDS011;47366;51.916;4.574;2023-06-14T07:07:50;5.18;;;2.00;;
61505;SDS011;47366;51.916;4.574;2023-06-14T07:10:15;2.47;;;1.48;;
61505;SDS011;47366;51.916;4.574;2023-06-14T07:12:41;5.72;;;2.00;;
61505;SDS011;47366;51.916;4.574;2023-06-14T07:15:06;2.75;;;1.48;;
61505;SDS011;47366;51.916;4.574;2023-06-14T07:17:33;5.40;;;1.70;;
61505;SDS011;47366;51.916;4.574;2023-06-14T07:19:59;2.83;;;1.42;;
61505;SDS011;47366;51.916;4.574;2023-06-14T07:22:25;2.03;;;1.40;;
61505;SDS011;47366;51.916;4.574;2023-06-14T07:24:51;3.17;;;1.50;;
61505;SDS011;47366;51.916;4.574;2023-06-14T07:27:16;3.10;;;1.85;;
61505;SDS011;47366;51.916;4.574;2023-06-14T07:29:42;3.30;;;1.70;;
61505;SDS011;47366;51.916;4.574;2023-06-14T07:32:07;3.55;;;1.83;;
61505;SDS011;47366;51.916;4.574;2023-06-14T07:34:32;6.53;;;2.10;;
61505;SDS011;47366;51.916;4.574;2023-06-14T07:36:58;3.25;;;1.80;;
61505;SDS011;47366;51.916;4.574;2023-06-14T07:39:23;3.63;;;1.67;;
61505;SDS011;47366;51.916;4.574;2023-06-14T07:41:48;3.15;;;1.40;;
61505;SDS011;47366;51.916;4.574;2023-06-14T07:44:14;7.13;;;1.55;;
61505;SDS011;47366;51.916;4.574;2023-06-14T07:46:39;4.32;;;1.63;;
61505;SDS011;47366;51.916;4.574;2023-06-14T07:49:05;4.80;;;1.67;;
61505;SDS011;47366;51.916;4.574;2023-06-14T07:51:31;2.45;;;1.60;;
61505;SDS011;47366;51.916;4.574;2023-06-14T07:53:56;3.17;;;1.67;;
61505;SDS011;47366;51.916;4.574;2023-06-14T07:56:25;3.42;;;1.60;;
61505;SDS011;47366;51.916;4.574;2023-06-14T07:58:51;3.40;;;1.52;;
61505;SDS011;47366;51.916;4.574;2023-06-14T08:01:16;2.53;;;1.35;;
61505;SDS011;47366;51.916;4.574;2023-06-14T08:03:41;4.80;;;1.50;;
61505;SDS011;47366;51.916;4.574;2023-06-14T08:06:07;2.80;;;1.27;;
61505;SDS011;47366;51.916;4.574;2023-06-14T08:08:32;2.85;;;1.63;;
61505;SDS011;47366;51.916;4.574;2023-06-14T08:10:58;3.80;;;1.60;;
61505;SDS011;47366;51.916;4.574;2023-06-14T08:13:23;3.63;;;1.50;;
61505;SDS011;47366;51.916;4.574;2023-06-14T08:15:49;2.72;;;1.50;;
61505;SDS011;47366;51.916;4.574;2023-06-14T08:18:14;2.60;;;1.38;;
61505;SDS011;47366;51.916;4.574;2023-06-14T08:20:40;2.78;;;1.67;;
61505;SDS011;47366;51.916;4.574;2023-06-14T08:23:05;2.53;;;1.27;;
61505;SDS011;47366;51.916;4.574;2023-06-14T08:25:31;3.22;;;1.67;;
61505;SDS011;47366;51.916;4.574;2023-06-14T08:27:56;3.35;;;1.83;;
61505;SDS011;47366;51.916;4.574;2023-06-14T08:30:22;2.58;;;1.58;;
61505;SDS011;47366;51.916;4.574;2023-06-14T08:32:47;3.17;;;1.38;;
61505;SDS011;47366;51.916;4.574;2023-06-14T08:35:12;3.20;;;1.50;;
61505;SDS011;47366;51.916;4.574;2023-06-14T08:37:41;3.72;;;1.52;;
61505;SDS011;47366;51.916;4.574;2023-06-14T08:40:12;2.75;;;1.58;;
61505;SDS011;47366;51.916;4.574;2023-06-14T08:42:44;4.78;;;1.45;;
61505;SDS011;47366;51.916;4.574;2023-06-14T08:45:11;4.28;;;1.80;;
61505;SDS011;47366;51.916;4.574;2023-06-14T08:47:36;3.67;;;1.45;;
61505;SDS011;47366;51.916;4.574;2023-06-14T08:50:02;2.72;;;1.40;;
61505;SDS011;47366;51.916;4.574;2023-06-14T08:52:29;2.58;;;1.48;;
61505;SDS011;47366;51.916;4.574;2023-06-14T08:54:58;2.25;;;1.40;;
61505;SDS011;47366;51.916;4.574;2023-06-14T08:57:25;5.45;;;1.52;;
61505;SDS011;47366;51.916;4.574;2023-06-14T08:59:55;4.30;;;1.70;;
61505;SDS011;47366;51.916;4.574;2023-06-14T09:02:21;3.72;;;1.70;;
61505;SDS011;47366;51.916;4.574;2023-06-14T09:04:47;3.65;;;1.98;;
61505;SDS011;47366;51.916;4.574;2023-06-14T09:07:14;4.90;;;1.48;;
61505;SDS011;47366;51.916;4.574;2023-06-14T09:09:40;3.30;;;1.60;;
61505;SDS011;47366;51.916;4.574;2023-06-14T09:12:07;5.50;;;1.80;;
61505;SDS011;47366;51.916;4.574;2023-06-14T09:14:36;2.38;;;1.48;;
61505;SDS011;47366;51.916;4.574;2023-06-14T09:17:03;5.40;;;1.60;;
61505;SDS011;47366;51.916;4.574;2023-06-14T09:19:29;7.50;;;1.83;;
61505;SDS011;47366;51.916;4.574;2023-06-14T09:21:54;3.63;;;1.55;;
61505;SDS011;47366;51.916;4.574;2023-06-14T09:24:20;4.70;;;1.83;;
61505;SDS011;47366;51.916;4.574;2023-06-14T09:26:50;2.80;;;1.45;;
61505;SDS011;47366;51.916;4.574;2023-06-14T09:29:16;5.07;;;1.58;;
61505;SDS011;47366;51.916;4.574;2023-06-14T09:31:42;1.85;;;1.38;;
61505;SDS011;47366;51.916;4.574;2023-06-14T09:34:08;2.03;;;1.40;;
61505;SDS011;47366;51.916;4.574;2023-06-14T09:36:34;2.25;;;1.40;;
61505;SDS011;47366;51.916;4.574;2023-06-14T09:39:00;4.03;;;1.77;;
61505;SDS011;47366;51.916;4.574;2023-06-14T09:41:36;4.30;;;1.50;;
61505;SDS011;47366;51.916;4.574;2023-06-14T09:44:04;4.85;;;1.65;;
61505;SDS011;47366;51.916;4.574;2023-06-14T09:46:33;3.50;;;1.67;;
61505;SDS011;47366;51.916;4.574;2023-06-14T09:49:00;3.13;;;1.25;;
61505;SDS011;47366;51.916;4.574;2023-06-14T09:51:27;2.72;;;1.30;;
61505;SDS011;47366;51.916;4.574;2023-06-14T09:53:55;2.03;;;1.30;;
61505;SDS011;47366;51.916;4.574;2023-06-14T09:56:30;1.90;;;1.33;;
61505;SDS011;47366;51.916;4.574;2023-06-14T09:58:58;3.58;;;1.48;;
61505;SDS011;47366;51.916;4.574;2023-06-14T10:01:24;2.10;;;1.20;;
61505;SDS011;47366;51.916;4.574;2023-06-14T10:03:57;2.50;;;1.35;;
61505;SDS011;47366;51.916;4.574;2023-06-14T10:06:26;4.82;;;1.50;;
61505;SDS011;47366;51.916;4.574;2023-06-14T10:08:54;4.40;;;1.50;;
61505;SDS011;47366;51.916;4.574;2023-06-14T10:11:28;3.90;;;1.30;;
61505;SDS011;47366;51.916;4.574;2023-06-14T10:13:56;1.88;;;0.98;;
61505;SDS011;47366;51.916;4.574;2023-06-14T10:16:27;5.68;;;1.60;;
61505;SDS011;47366;51.916;4.574;2023-06-14T10:19:02;3.45;;;1.08;;
61505;SDS011;47366;51.916;4.574;2023-06-14T10:21:43;2.25;;;1.25;;
61505;SDS011;47366;51.916;4.574;2023-06-14T10:24:26;2.35;;;1.15;;
61505;SDS011;47366;51.916;4.574;2023-06-14T10:26:56;1.48;;;1.10;;
61505;SDS011;47366;51.916;4.574;2023-06-14T10:29:24;2.08;;;0.95;;
61505;SDS011;47366;51.916;4.574;2023-06-14T10:31:50;1.25;;;0.95;;
61505;SDS011;47366;51.916;4.574;2023-06-14T10:34:27;4.63;;;1.13;;
61505;SDS011;47366;51.916;4.574;2023-06-14T10:37:06;1.65;;;1.25;;
61505;SDS011;47366;51.916;4.574;2023-06-14T10:39:41;1.83;;;1.10;;
61505;SDS011;47366;51.916;4.574;2023-06-14T10:42:13;2.22;;;1.30;;
61505;SDS011;47366;51.916;4.574;2023-06-14T10:44:40;1.25;;;1.00;;
61505;SDS011;47366;51.916;4.574;2023-06-14T10:47:19;2.80;;;1.13;;
61505;SDS011;47366;51.916;4.574;2023-06-14T10:49:54;3.17;;;1.20;;
61505;SDS011;47366;51.916;4.574;2023-06-14T10:52:23;2.92;;;1.30;;
61505;SDS011;47366;51.916;4.574;2023-06-14T10:55:06;2.72;;;1.15;;
61505;SDS011;47366;51.916;4.574;2023-06-14T10:57:48;1.08;;;0.70;;
61505;SDS011;47366;51.916;4.574;2023-06-14T11:00:21;7.93;;;0.95;;
61505;SDS011;47366;51.916;4.574;2023-06-14T11:05:41;3.20;;;0.90;;
61505;SDS011;47366;51.916;4.574;2023-06-14T11:10:59;1.77;;;0.98;;
61505;SDS011;47366;51.916;4.574;2023-06-14T11:13:25;1.48;;;1.00;;
61505;SDS011;47366;51.916;4.574;2023-06-14T11:15:51;1.08;;;0.70;;
61505;SDS011;47366;51.916;4.574;2023-06-14T11:18:22;1.33;;;0.93;;
61505;SDS011;47366;51.916;4.574;2023-06-14T11:20:52;1.73;;;0.88;;
61505;SDS011;47366;51.916;4.574;2023-06-14T11:23:18;1.20;;;0.77;;
61505;SDS011;47366;51.916;4.574;2023-06-14T11:25:43;2.10;;;0.73;;
61505;SDS011;47366;51.916;4.574;2023-06-14T11:28:14;2.43;;;1.07;;
61505;SDS011;47366;51.916;4.574;2023-06-14T11:30:39;1.45;;;0.98;;
61505;SDS011;47366;51.916;4.574;2023-06-14T11:33:05;1.05;;;0.95;;
61505;SDS011;47366;51.916;4.574;2023-06-14T11:35:35;2.40;;;1.00;;
61505;SDS011;47366;51.916;4.574;2023-06-14T11:38:01;1.35;;;0.90;;
61505;SDS011;47366;51.916;4.574;2023-06-14T11:40:26;1.65;;;0.90;;
61505;SDS011;47366;51.916;4.574;2023-06-14T11:42:59;1.23;;;0.85;;
61505;SDS011;47366;51.916;4.574;2023-06-14T11:45:25;8.70;;;1.10;;
61505;SDS011;47366;51.916;4.574;2023-06-14T11:47:51;1.55;;;1.00;;
61505;SDS011;47366;51.916;4.574;2023-06-14T11:50:16;3.78;;;0.88;;
61505;SDS011;47366;51.916;4.574;2023-06-14T11:52:41;0.73;;;0.73;;
61505;SDS011;47366;51.916;4.574;2023-06-14T11:55:07;4.78;;;0.80;;
61505;SDS011;47366;51.916;4.574;2023-06-14T11:57:36;1.52;;;1.00;;
61505;SDS011;47366;51.916;4.574;2023-06-14T12:00:04;2.87;;;0.90;;
61505;SDS011;47366;51.916;4.574;2023-06-14T12:02:37;1.58;;;1.02;;
61505;SDS011;47366;51.916;4.574;2023-06-14T12:05:06;1.65;;;0.75;;
61505;SDS011;47366;51.916;4.574;2023-06-14T12:07:38;1.58;;;0.90;;
61505;SDS011;47366;51.916;4.574;2023-06-14T12:12:37;1.67;;;0.90;;
61505;SDS011;47366;51.916;4.574;2023-06-14T12:15:04;1.13;;;0.90;;
61505;SDS011;47366;51.916;4.574;2023-06-14T12:17:34;4.38;;;1.23;;
61505;SDS011;47366;51.916;4.574;2023-06-14T12:20:05;1.15;;;0.80;;
61505;SDS011;47366;51.916;4.574;2023-06-14T12:22:57;2.03;;;1.10;;
61505;SDS011;47366;51.916;4.574;2023-06-14T12:25:26;2.17;;;0.85;;
61505;SDS011;47366;51.916;4.574;2023-06-14T12:27:55;2.08;;;0.80;;
61505;SDS011;47366;51.916;4.574;2023-06-14T12:30:21;0.98;;;0.88;;
61505;SDS011;47366;51.916;4.574;2023-06-14T12:32:47;0.90;;;0.70;;
61505;SDS011;47366;51.916;4.574;2023-06-14T12:35:12;1.75;;;0.65;;
61505;SDS011;47366;51.916;4.574;2023-06-14T12:37:37;1.67;;;1.00;;
61505;SDS011;47366;51.916;4.574;2023-06-14T12:40:03;1.77;;;0.90;;
61505;SDS011;47366;51.916;4.574;2023-06-14T12:42:30;1.52;;;0.90;;
61505;SDS011;47366;51.916;4.574;2023-06-14T12:44:56;1.35;;;0.80;;
61505;SDS011;47366;51.916;4.574;2023-06-14T12:47:21;1.83;;;1.17;;
61505;SDS011;47366;51.916;4.574;2023-06-14T12:49:46;1.90;;;1.08;;
61505;SDS011;47366;51.916;4.574;2023-06-14T12:52:12;1.33;;;1.05;;
61505;SDS011;47366;51.916;4.574;2023-06-14T12:54:37;4.07;;;0.93;;
61505;SDS011;47366;51.916;4.574;2023-06-14T12:57:04;1.48;;;0.98;;
61505;SDS011;47366;51.916;4.574;2023-06-14T12:59:30;2.38;;;1.00;;
61505;SDS011;47366;51.916;4.574;2023-06-14T13:01:58;1.90;;;0.65;;
61505;SDS011;47366;51.916;4.574;2023-06-14T13:04:36;1.92;;;1.13;;
61505;SDS011;47366;51.916;4.574;2023-06-14T13:07:02;1.27;;;0.95;;
61505;SDS011;47366;51.916;4.574;2023-06-14T13:09:27;1.90;;;1.08;;
61505;SDS011;47366;51.916;4.574;2023-06-14T13:11:52;1.20;;;0.93;;
61505;SDS011;47366;51.916;4.574;2023-06-14T13:14:18;1.35;;;0.90;;
61505;SDS011;47366;51.916;4.574;2023-06-14T13:16:43;1.15;;;0.80;;
61505;SDS011;47366;51.916;4.574;2023-06-14T13:19:09;4.10;;;1.17;;
61505;SDS011;47366;51.916;4.574;2023-06-14T13:21:34;2.30;;;0.77;;
61505;SDS011;47366;51.916;4.574;2023-06-14T13:23:59;2.53;;;0.90;;
61505;SDS011;47366;51.916;4.574;2023-06-14T13:26:25;3.10;;;0.88;;
61505;SDS011;47366;51.916;4.574;2023-06-14T13:28:51;2.10;;;0.98;;
61505;SDS011;47366;51.916;4.574;2023-06-14T13:31:17;1.48;;;0.93;;
61505;SDS011;47366;51.916;4.574;2023-06-14T13:33:42;3.33;;;0.80;;
61505;SDS011;47366;51.916;4.574;2023-06-14T13:36:07;2.20;;;0.90;;
61505;SDS011;47366;51.916;4.574;2023-06-14T13:38:33;2.60;;;0.95;;
61505;SDS011;47366;51.916;4.574;2023-06-14T13:40:58;1.30;;;1.00;;
61505;SDS011;47366;51.916;4.574;2023-06-14T13:43:23;2.45;;;0.90;;
61505;SDS011;47366;51.916;4.574;2023-06-14T13:45:49;4.22;;;0.95;;
61505;SDS011;47366;51.916;4.574;2023-06-14T13:48:14;1.65;;;0.98;;
61505;SDS011;47366;51.916;4.574;2023-06-14T13:50:39;1.13;;;0.60;;
61505;SDS011;47366;51.916;4.574;2023-06-14T13:53:05;0.82;;;0.73;;
61505;SDS011;47366;51.916;4.574;2023-06-14T13:55:30;1.98;;;1.10;;
61505;SDS011;47366;51.916;4.574;2023-06-14T13:57:55;4.72;;;1.10;;
61505;SDS011;47366;51.916;4.574;2023-06-14T14:00:21;2.35;;;1.00;;
61505;SDS011;47366;51.916;4.574;2023-06-14T14:02:47;2.00;;;1.08;;
61505;SDS011;47366;51.916;4.574;2023-06-14T14:05:15;0.98;;;0.70;;
61505;SDS011;47366;51.916;4.574;2023-06-14T14:07:41;1.83;;;0.90;;
61505;SDS011;47366;51.916;4.574;2023-06-14T14:10:07;1.55;;;0.98;;
61505;SDS011;47366;51.916;4.574;2023-06-14T14:12:33;1.67;;;1.00;;
61505;SDS011;47366;51.916;4.574;2023-06-14T14:14:58;2.38;;;0.90;;
61505;SDS011;47366;51.916;4.574;2023-06-14T14:17:24;1.55;;;1.00;;
61505;SDS011;47366;51.916;4.574;2023-06-14T14:19:49;2.08;;;0.68;;
61505;SDS011;47366;51.916;4.574;2023-06-14T14:22:15;1.40;;;1.00;;
61505;SDS011;47366;51.916;4.574;2023-06-14T14:24:40;3.25;;;0.82;;
61505;SDS011;47366;51.916;4.574;2023-06-14T14:27:05;2.50;;;1.10;;
61505;SDS011;47366;51.916;4.574;2023-06-14T14:29:31;1.40;;;0.90;;
61505;SDS011;47366;51.916;4.574;2023-06-14T14:31:57;3.63;;;1.30;;
61505;SDS011;47366;51.916;4.574;2023-06-14T14:34:23;2.55;;;1.30;;
61505;SDS011;47366;51.916;4.574;2023-06-14T14:36:49;2.80;;;0.95;;
61505;SDS011;47366;51.916;4.574;2023-06-14T14:39:15;2.83;;;1.13;;
61505;SDS011;47366;51.916;4.574;2023-06-14T14:41:40;0.93;;;0.70;;
61505;SDS011;47366;51.916;4.574;2023-06-14T14:44:06;1.83;;;0.80;;
61505;SDS011;47366;51.916;4.574;2023-06-14T14:46:31;1.10;;;0.88;;
61505;SDS011;47366;51.916;4.574;2023-06-14T14:48:58;0.77;;;0.70;;
61505;SDS011;47366;51.916;4.574;2023-06-14T14:51:25;1.50;;;0.93;;
61505;SDS011;47366;51.916;4.574;2023-06-14T14:53:50;2.03;;;0.88;;